sensor_id;sensor_type;location;lat;lon;timestamp;pressure;altitude;pressure_sealevel;temperature;humidity
78717;BME280;68045;50.042;14.432;2023-07-16T00:01:27;97652.16;;;26.44;45.63
78717;BME280;68045;50.042;14.432;2023-07-16T00:05:28;97647.72;;;26.24;46.60
78717;BME280;68045;50.042;14.432;2023-07-16T00:09:29;97642.81;;;26.14;47.13
78717;BME280;68045;50.042;14.432;2023-07-16T00:13:30;97631.50;;;26.08;47.27
78717;BME280;68045;50.042;14.432;2023-07-16T00:17:32;97622.06;;;26.02;47.05
78717;BME280;68045;50.042;14.432;2023-07-16T00:21:33;97620.78;;;25.84;47.99
78717;BME280;68045;50.042;14.432;2023-07-16T00:25:34;97638.44;;;25.65;48.74
78717;BME280;68045;50.042;14.432;2023-07-16T00:29:36;97659.59;;;25.63;48.67
78717;BME280;68045;50.042;14.432;2023-07-16T00:33:36;97661.78;;;25.86;48.01
78717;BME280;68045;50.042;14.432;2023-07-16T00:37:37;97666.31;;;25.82;48.43
78717;BME280;68045;50.042;14.432;2023-07-16T00:41:41;97678.59;;;25.79;48.17
78717;BME280;68045;50.042;14.432;2023-07-16T00:45:45;97674.25;;;25.62;48.99
78717;BME280;68045;50.042;14.432;2023-07-16T00:49:47;97675.16;;;25.54;49.25
78717;BME280;68045;50.042;14.432;2023-07-16T00:53:48;97678.88;;;25.50;49.32
78717;BME280;68045;50.042;14.432;2023-07-16T00:57:49;97697.78;;;25.62;48.90
78717;BME280;68045;50.042;14.432;2023-07-16T01:01:51;97806.13;;;25.57;49.19
78717;BME280;68045;50.042;14.432;2023-07-16T01:06:15;97773.59;;;25.29;46.67
78717;BME280;68045;50.042;14.432;2023-07-16T01:10:17;97759.88;;;25.34;45.99
78717;BME280;68045;50.042;14.432;2023-07-16T01:14:20;97831.50;;;25.52;44.96
78717;BME280;68045;50.042;14.432;2023-07-16T01:18:22;97758.25;;;25.57;44.60
78717;BME280;68045;50.042;14.432;2023-07-16T01:22:34;97832.16;;;25.49;44.98
78717;BME280;68045;50.042;14.432;2023-07-16T01:31:06;97810.97;;;25.51;45.01
78717;BME280;68045;50.042;14.432;2023-07-16T01:35:08;97812.09;;;25.50;45.09
78717;BME280;68045;50.042;14.432;2023-07-16T01:39:10;97816.97;;;25.44;45.39
78717;BME280;68045;50.042;14.432;2023-07-16T01:43:11;97817.84;;;25.48;45.35
78717;BME280;68045;50.042;14.432;2023-07-16T01:47:29;97815.50;;;25.35;45.54
78717;BME280;68045;50.042;14.432;2023-07-16T01:51:33;97815.38;;;25.43;45.51
78717;BME280;68045;50.042;14.432;2023-07-16T01:55:33;97833.75;;;25.38;45.39
78717;BME280;68045;50.042;14.432;2023-07-16T01:59:34;97840.72;;;25.39;45.69
78717;BME280;68045;50.042;14.432;2023-07-16T02:03:35;97861.31;;;25.43;45.94
78717;BME280;68045;50.042;14.432;2023-07-16T02:07:39;97869.91;;;25.45;46.10
78717;BME280;68045;50.042;14.432;2023-07-16T02:11:40;97884.75;;;25.39;46.58
78717;BME280;68045;50.042;14.432;2023-07-16T02:15:45;97887.56;;;25.31;47.22
78717;BME280;68045;50.042;14.432;2023-07-16T02:19:46;97894.19;;;25.33;47.16
78717;BME280;68045;50.042;14.432;2023-07-16T02:23:47;97916.91;;;25.20;47.78
78717;BME280;68045;50.042;14.432;2023-07-16T02:27:48;97932.19;;;25.16;48.40
78717;BME280;68045;50.042;14.432;2023-07-16T02:31:49;97930.63;;;25.15;48.64
78717;BME280;68045;50.042;14.432;2023-07-16T02:35:50;97933.22;;;25.11;48.91
78717;BME280;68045;50.042;14.432;2023-07-16T02:39:52;97966.16;;;25.05;49.28
78717;BME280;68045;50.042;14.432;2023-07-16T02:44:01;97973.00;;;25.02;49.25
78717;BME280;68045;50.042;14.432;2023-07-16T02:48:02;97996.22;;;24.94;49.60
78717;BME280;68045;50.042;14.432;2023-07-16T02:52:04;97997.25;;;24.90;49.96
78717;BME280;68045;50.042;14.432;2023-07-16T02:56:05;98014.75;;;24.84;50.20
78717;BME280;68045;50.042;14.432;2023-07-16T03:00:06;98015.13;;;24.94;50.14
78717;BME280;68045;50.042;14.432;2023-07-16T03:04:08;97991.38;;;24.88;50.65
78717;BME280;68045;50.042;14.432;2023-07-16T03:08:08;97989.94;;;24.90;50.22
78717;BME280;68045;50.042;14.432;2023-07-16T03:12:09;98031.91;;;24.88;50.57
78717;BME280;68045;50.042;14.432;2023-07-16T03:16:10;98058.78;;;25.05;50.15
78717;BME280;68045;50.042;14.432;2023-07-16T03:20:12;98080.28;;;24.93;50.48
78717;BME280;68045;50.042;14.432;2023-07-16T03:24:13;98103.34;;;24.90;50.65
78717;BME280;68045;50.042;14.432;2023-07-16T03:28:14;98117.56;;;25.00;50.53
78717;BME280;68045;50.042;14.432;2023-07-16T03:32:15;98113.75;;;25.01;50.54
78717;BME280;68045;50.042;14.432;2023-07-16T03:36:18;98099.66;;;24.95;50.79
78717;BME280;68045;50.042;14.432;2023-07-16T03:40:24;98095.84;;;24.96;50.71
78717;BME280;68045;50.042;14.432;2023-07-16T03:44:25;98099.56;;;24.83;50.96
78717;BME280;68045;50.042;14.432;2023-07-16T03:48:26;98116.16;;;24.93;50.45
78717;BME280;68045;50.042;14.432;2023-07-16T03:52:27;98135.75;;;24.90;50.41
78717;BME280;68045;50.042;14.432;2023-07-16T03:56:29;98158.06;;;25.00;49.69
78717;BME280;68045;50.042;14.432;2023-07-16T04:00:30;98166.56;;;25.19;49.16
78717;BME280;68045;50.042;14.432;2023-07-16T04:04:31;98174.28;;;25.29;49.02
78717;BME280;68045;50.042;14.432;2023-07-16T04:08:33;98165.91;;;25.22;49.72
78717;BME280;68045;50.042;14.432;2023-07-16T04:12:33;98128.56;;;25.24;49.98
78717;BME280;68045;50.042;14.432;2023-07-16T04:16:34;98154.19;;;25.18;50.10
78717;BME280;68045;50.042;14.432;2023-07-16T04:20:35;98204.50;;;25.31;51.56
78717;BME280;68045;50.042;14.432;2023-07-16T04:24:36;98206.19;;;24.77;55.16
78717;BME280;68045;50.042;14.432;2023-07-16T04:28:37;98215.16;;;24.51;55.63
78717;BME280;68045;50.042;14.432;2023-07-16T04:32:39;98231.25;;;24.39;56.39
78717;BME280;68045;50.042;14.432;2023-07-16T04:36:42;98240.41;;;24.29;57.29
78717;BME280;68045;50.042;14.432;2023-07-16T04:40:43;98254.75;;;24.04;58.45
78717;BME280;68045;50.042;14.432;2023-07-16T04:44:44;98267.41;;;23.86;59.84
78717;BME280;68045;50.042;14.432;2023-07-16T04:48:45;98275.66;;;23.72;61.02
78717;BME280;68045;50.042;14.432;2023-07-16T04:52:46;98278.78;;;23.57;62.51
78717;BME280;68045;50.042;14.432;2023-07-16T04:56:47;98284.78;;;23.45;64.25
78717;BME280;68045;50.042;14.432;2023-07-16T05:00:47;98292.69;;;23.33;65.75
78717;BME280;68045;50.042;14.432;2023-07-16T05:04:49;98273.06;;;23.01;67.30
78717;BME280;68045;50.042;14.432;2023-07-16T05:08:49;98266.47;;;23.16;68.55
78717;BME280;68045;50.042;14.432;2023-07-16T05:12:50;98255.22;;;23.14;69.07
78717;BME280;68045;50.042;14.432;2023-07-16T05:16:51;98236.75;;;22.90;69.81
78717;BME280;68045;50.042;14.432;2023-07-16T05:20:52;98227.50;;;22.83;70.86
78717;BME280;68045;50.042;14.432;2023-07-16T05:24:53;98213.38;;;22.68;71.43
78717;BME280;68045;50.042;14.432;2023-07-16T05:28:54;98252.06;;;22.50;71.07
78717;BME280;68045;50.042;14.432;2023-07-16T05:32:56;98284.91;;;22.38;70.86
78717;BME280;68045;50.042;14.432;2023-07-16T05:36:57;98275.94;;;22.20;72.03
78717;BME280;68045;50.042;14.432;2023-07-16T05:41:02;98282.41;;;22.06;74.50
78717;BME280;68045;50.042;14.432;2023-07-16T05:45:03;98276.28;;;21.91;75.00
78717;BME280;68045;50.042;14.432;2023-07-16T05:49:04;98257.53;;;22.14;73.26
78717;BME280;68045;50.042;14.432;2023-07-16T05:53:05;98238.59;;;21.83;76.36
78717;BME280;68045;50.042;14.432;2023-07-16T05:57:06;98238.84;;;21.95;75.37
78717;BME280;68045;50.042;14.432;2023-07-16T06:01:08;98246.91;;;21.95;75.19
78717;BME280;68045;50.042;14.432;2023-07-16T06:05:09;98260.16;;;21.91;74.94
78717;BME280;68045;50.042;14.432;2023-07-16T06:09:10;98244.38;;;21.76;76.88
78717;BME280;68045;50.042;14.432;2023-07-16T06:13:10;98243.00;;;21.79;76.09
78717;BME280;68045;50.042;14.432;2023-07-16T06:17:11;98259.41;;;21.77;75.68
78717;BME280;68045;50.042;14.432;2023-07-16T06:21:12;98270.13;;;21.91;77.20
78717;BME280;68045;50.042;14.432;2023-07-16T06:25:13;98255.06;;;22.48;74.77
78717;BME280;68045;50.042;14.432;2023-07-16T06:29:14;98227.69;;;22.55;73.33
78717;BME280;68045;50.042;14.432;2023-07-16T06:33:15;98232.81;;;22.57;72.08
78717;BME280;68045;50.042;14.432;2023-07-16T06:37:16;98223.31;;;22.59;71.54
78717;BME280;68045;50.042;14.432;2023-07-16T06:41:17;98237.19;;;22.53;72.85
78717;BME280;68045;50.042;14.432;2023-07-16T06:45:18;98255.00;;;22.40;72.95
78717;BME280;68045;50.042;14.432;2023-07-16T06:49:19;98279.78;;;22.28;74.65
78717;BME280;68045;50.042;14.432;2023-07-16T06:53:20;98287.94;;;22.01;76.31
78717;BME280;68045;50.042;14.432;2023-07-16T06:57:22;98271.78;;;21.78;77.94
78717;BME280;68045;50.042;14.432;2023-07-16T07:01:23;98270.19;;;21.63;78.93
78717;BME280;68045;50.042;14.432;2023-07-16T07:05:24;98274.97;;;21.66;78.94
78717;BME280;68045;50.042;14.432;2023-07-16T07:09:25;98276.03;;;21.79;78.12
78717;BME280;68045;50.042;14.432;2023-07-16T07:13:27;98290.09;;;21.99;77.72
78717;BME280;68045;50.042;14.432;2023-07-16T07:17:30;98307.53;;;22.15;77.57
78717;BME280;68045;50.042;14.432;2023-07-16T07:21:30;98304.06;;;22.01;78.08
78717;BME280;68045;50.042;14.432;2023-07-16T07:25:31;98304.31;;;22.13;77.98
78717;BME280;68045;50.042;14.432;2023-07-16T07:29:32;98292.66;;;22.40;76.93
78717;BME280;68045;50.042;14.432;2023-07-16T07:33:33;98312.34;;;22.71;75.51
78717;BME280;68045;50.042;14.432;2023-07-16T07:37:34;98315.69;;;22.77;75.07
78717;BME280;68045;50.042;14.432;2023-07-16T07:41:35;98308.78;;;22.85;74.64
78717;BME280;68045;50.042;14.432;2023-07-16T07:45:36;98312.53;;;23.06;75.31
78717;BME280;68045;50.042;14.432;2023-07-16T07:49:37;98322.66;;;23.49;70.70
78717;BME280;68045;50.042;14.432;2023-07-16T07:53:38;98326.81;;;23.55;69.56
78717;BME280;68045;50.042;14.432;2023-07-16T07:57:39;98327.22;;;23.97;68.53
78717;BME280;68045;50.042;14.432;2023-07-16T08:01:40;98324.06;;;24.21;67.16
78717;BME280;68045;50.042;14.432;2023-07-16T08:05:41;98338.03;;;24.57;66.12
78717;BME280;68045;50.042;14.432;2023-07-16T08:09:41;98338.81;;;24.58;63.40
78717;BME280;68045;50.042;14.432;2023-07-16T08:13:42;98339.09;;;25.29;61.85
78717;BME280;68045;50.042;14.432;2023-07-16T08:17:44;98347.44;;;25.54;61.08
78717;BME280;68045;50.042;14.432;2023-07-16T08:21:45;98352.47;;;25.64;60.81
78717;BME280;68045;50.042;14.432;2023-07-16T08:25:46;98351.94;;;25.41;60.66
78717;BME280;68045;50.042;14.432;2023-07-16T08:29:47;98345.47;;;25.33;59.47
78717;BME280;68045;50.042;14.432;2023-07-16T08:33:48;98347.25;;;25.20;57.26
78717;BME280;68045;50.042;14.432;2023-07-16T08:37:49;98344.09;;;25.18;57.13
78717;BME280;68045;50.042;14.432;2023-07-16T08:41:50;98350.53;;;24.71;58.05
78717;BME280;68045;50.042;14.432;2023-07-16T08:45:51;98359.63;;;24.40;58.78
78717;BME280;68045;50.042;14.432;2023-07-16T08:49:55;98362.63;;;24.04;59.44
78717;BME280;68045;50.042;14.432;2023-07-16T08:53:56;98363.22;;;24.09;58.22
78717;BME280;68045;50.042;14.432;2023-07-16T08:57:58;98371.81;;;24.11;57.90
78717;BME280;68045;50.042;14.432;2023-07-16T09:01:59;98374.03;;;24.18;57.63
78717;BME280;68045;50.042;14.432;2023-07-16T09:06:03;98370.09;;;24.68;56.33
78717;BME280;68045;50.042;14.432;2023-07-16T09:10:05;98393.66;;;25.31;53.76
78717;BME280;68045;50.042;14.432;2023-07-16T09:14:06;98375.44;;;24.85;52.11
78717;BME280;68045;50.042;14.432;2023-07-16T09:18:07;98375.94;;;25.04;52.53
78717;BME280;68045;50.042;14.432;2023-07-16T09:22:11;98383.78;;;25.27;51.14
78717;BME280;68045;50.042;14.432;2023-07-16T09:26:11;98382.47;;;25.41;50.62
78717;BME280;68045;50.042;14.432;2023-07-16T09:30:16;98397.28;;;25.35;49.65
78717;BME280;68045;50.042;14.432;2023-07-16T09:34:17;98404.03;;;25.50;49.40
78717;BME280;68045;50.042;14.432;2023-07-16T09:38:18;98418.00;;;25.14;50.19
78717;BME280;68045;50.042;14.432;2023-07-16T09:42:19;98415.13;;;25.19;50.16
78717;BME280;68045;50.042;14.432;2023-07-16T09:46:21;98416.84;;;25.32;48.55
78717;BME280;68045;50.042;14.432;2023-07-16T09:50:23;98424.25;;;25.44;48.00
78717;BME280;68045;50.042;14.432;2023-07-16T09:54:25;98441.53;;;24.87;48.49
78717;BME280;68045;50.042;14.432;2023-07-16T09:58:27;98442.16;;;24.58;48.14
78717;BME280;68045;50.042;14.432;2023-07-16T10:02:28;98447.34;;;24.11;48.90
78717;BME280;68045;50.042;14.432;2023-07-16T10:06:29;98414.84;;;24.25;47.62
78717;BME280;68045;50.042;14.432;2023-07-16T10:10:41;98436.41;;;24.25;47.79
78717;BME280;68045;50.042;14.432;2023-07-16T10:14:50;98434.97;;;24.10;48.61
78717;BME280;68045;50.042;14.432;2023-07-16T10:18:52;98435.38;;;24.61;47.65
78717;BME280;68045;50.042;14.432;2023-07-16T10:22:53;98427.53;;;25.03;47.19
78717;BME280;68045;50.042;14.432;2023-07-16T10:26:54;98427.28;;;25.89;45.39
78717;BME280;68045;50.042;14.432;2023-07-16T10:30:55;98421.88;;;26.61;44.33
78717;BME280;68045;50.042;14.432;2023-07-16T10:34:56;98447.09;;;26.02;44.91
78717;BME280;68045;50.042;14.432;2023-07-16T10:39:06;98433.47;;;25.90;45.08
78717;BME280;68045;50.042;14.432;2023-07-16T10:43:08;98432.28;;;25.70;45.08
78717;BME280;68045;50.042;14.432;2023-07-16T10:47:40;98438.97;;;25.26;46.11
78717;BME280;68045;50.042;14.432;2023-07-16T10:51:39;98438.19;;;24.90;47.31
78717;BME280;68045;50.042;14.432;2023-07-16T10:55:41;98444.72;;;24.46;48.48
78717;BME280;68045;50.042;14.432;2023-07-16T10:59:42;98451.22;;;23.88;49.65
78717;BME280;68045;50.042;14.432;2023-07-16T11:03:46;98452.72;;;23.63;50.25
78717;BME280;68045;50.042;14.432;2023-07-16T11:07:48;98459.88;;;23.68;49.77
78717;BME280;68045;50.042;14.432;2023-07-16T11:11:50;98471.34;;;23.51;50.48
78717;BME280;68045;50.042;14.432;2023-07-16T11:15:51;98462.09;;;23.66;50.26
78717;BME280;68045;50.042;14.432;2023-07-16T11:19:52;98453.44;;;23.86;50.31
78717;BME280;68045;50.042;14.432;2023-07-16T11:23:53;98460.97;;;24.15;48.95
78717;BME280;68045;50.042;14.432;2023-07-16T11:27:55;98471.00;;;24.23;49.63
78717;BME280;68045;50.042;14.432;2023-07-16T11:31:56;98466.09;;;24.25;49.96
78717;BME280;68045;50.042;14.432;2023-07-16T11:35:57;98454.50;;;24.25;50.98
78717;BME280;68045;50.042;14.432;2023-07-16T11:40:07;98453.53;;;24.21;51.60
78717;BME280;68045;50.042;14.432;2023-07-16T11:44:08;98457.81;;;24.13;51.76
78717;BME280;68045;50.042;14.432;2023-07-16T11:48:10;98452.22;;;24.01;51.15
78717;BME280;68045;50.042;14.432;2023-07-16T11:52:11;98454.25;;;23.95;52.49
78717;BME280;68045;50.042;14.432;2023-07-16T11:56:12;98447.91;;;23.91;53.15
78717;BME280;68045;50.042;14.432;2023-07-16T12:00:13;98453.13;;;24.36;51.46
78717;BME280;68045;50.042;14.432;2023-07-16T12:04:16;98442.47;;;25.09;50.25
78717;BME280;68045;50.042;14.432;2023-07-16T12:08:17;98445.91;;;25.35;47.41
78717;BME280;68045;50.042;14.432;2023-07-16T12:12:18;98437.38;;;24.99;49.51
78717;BME280;68045;50.042;14.432;2023-07-16T12:16:19;98451.31;;;24.14;50.17
78717;BME280;68045;50.042;14.432;2023-07-16T12:20:20;98448.72;;;23.92;50.65
78717;BME280;68045;50.042;14.432;2023-07-16T12:24:21;98458.53;;;23.56;51.35
78717;BME280;68045;50.042;14.432;2023-07-16T12:28:22;98444.16;;;23.39;53.25
78717;BME280;68045;50.042;14.432;2023-07-16T12:32:22;98450.69;;;23.69;52.96
78717;BME280;68045;50.042;14.432;2023-07-16T12:36:23;98445.66;;;23.53;53.07
78717;BME280;68045;50.042;14.432;2023-07-16T12:40:25;98442.16;;;23.44;53.27
78717;BME280;68045;50.042;14.432;2023-07-16T12:44:26;98425.75;;;23.32;53.51
78717;BME280;68045;50.042;14.432;2023-07-16T12:48:27;98437.16;;;23.29;53.33
78717;BME280;68045;50.042;14.432;2023-07-16T12:52:28;98417.22;;;23.61;52.58
78717;BME280;68045;50.042;14.432;2023-07-16T12:56:28;98426.59;;;24.38;51.17
78717;BME280;68045;50.042;14.432;2023-07-16T13:00:31;98432.59;;;25.30;48.91
78717;BME280;68045;50.042;14.432;2023-07-16T13:04:32;98430.03;;;25.81;46.56
78717;BME280;68045;50.042;14.432;2023-07-16T13:08:33;98420.84;;;25.64;48.04
78717;BME280;68045;50.042;14.432;2023-07-16T13:12:34;98410.53;;;26.46;44.95
78717;BME280;68045;50.042;14.432;2023-07-16T13:16:35;98415.19;;;26.79;45.06
78717;BME280;68045;50.042;14.432;2023-07-16T13:20:36;98417.94;;;27.24;43.49
78717;BME280;68045;50.042;14.432;2023-07-16T13:24:37;98419.75;;;26.87;43.95
78717;BME280;68045;50.042;14.432;2023-07-16T13:28:38;98416.41;;;26.48;44.86
78717;BME280;68045;50.042;14.432;2023-07-16T13:32:39;98419.06;;;26.07;45.94
78717;BME280;68045;50.042;14.432;2023-07-16T13:36:39;98420.16;;;25.38;47.33
78717;BME280;68045;50.042;14.432;2023-07-16T13:40:40;98428.06;;;25.52;47.48
78717;BME280;68045;50.042;14.432;2023-07-16T13:44:42;98423.25;;;26.25;46.66
78717;BME280;68045;50.042;14.432;2023-07-16T13:48:42;98431.69;;;25.56;46.94
78717;BME280;68045;50.042;14.432;2023-07-16T13:52:43;98425.66;;;25.50;47.24
78717;BME280;68045;50.042;14.432;2023-07-16T13:56:44;98415.16;;;25.57;47.00
78717;BME280;68045;50.042;14.432;2023-07-16T14:00:45;98403.69;;;25.60;47.05
78717;BME280;68045;50.042;14.432;2023-07-16T14:04:46;98398.44;;;26.23;46.06
78717;BME280;68045;50.042;14.432;2023-07-16T14:08:47;98394.09;;;26.51;45.76
78717;BME280;68045;50.042;14.432;2023-07-16T14:12:48;98392.81;;;26.49;45.57
78717;BME280;68045;50.042;14.432;2023-07-16T14:16:50;98385.41;;;26.79;45.54
78717;BME280;68045;50.042;14.432;2023-07-16T14:20:51;98388.78;;;27.09;44.80
78717;BME280;68045;50.042;14.432;2023-07-16T14:24:52;98386.91;;;27.22;44.65
78717;BME280;68045;50.042;14.432;2023-07-16T14:28:53;98392.41;;;26.17;45.88
78717;BME280;68045;50.042;14.432;2023-07-16T14:32:53;98380.06;;;25.87;46.59
78717;BME280;68045;50.042;14.432;2023-07-16T14:36:55;98364.50;;;26.25;46.85
78717;BME280;68045;50.042;14.432;2023-07-16T14:40:56;98357.19;;;26.80;45.85
78717;BME280;68045;50.042;14.432;2023-07-16T14:44:57;98361.34;;;26.44;44.98
78717;BME280;68045;50.042;14.432;2023-07-16T14:48:58;98354.47;;;26.26;45.82
78717;BME280;68045;50.042;14.432;2023-07-16T14:52:58;98348.88;;;26.52;45.57
78717;BME280;68045;50.042;14.432;2023-07-16T14:56:59;98356.09;;;26.93;44.49
78717;BME280;68045;50.042;14.432;2023-07-16T15:01:01;98349.84;;;26.80;44.09
78717;BME280;68045;50.042;14.432;2023-07-16T15:05:04;98340.44;;;26.66;43.88
78717;BME280;68045;50.042;14.432;2023-07-16T15:09:05;98318.72;;;26.99;43.63
78717;BME280;68045;50.042;14.432;2023-07-16T15:13:06;98332.16;;;26.95;43.85
78717;BME280;68045;50.042;14.432;2023-07-16T15:17:07;98331.31;;;27.16;43.09
78717;BME280;68045;50.042;14.432;2023-07-16T15:21:08;98324.53;;;27.09;42.32
78717;BME280;68045;50.042;14.432;2023-07-16T15:25:09;98329.56;;;26.99;43.41
78717;BME280;68045;50.042;14.432;2023-07-16T15:29:10;98324.63;;;27.13;42.45
78717;BME280;68045;50.042;14.432;2023-07-16T15:33:11;98311.47;;;27.36;41.49
78717;BME280;68045;50.042;14.432;2023-07-16T15:37:12;98319.00;;;27.67;39.30
78717;BME280;68045;50.042;14.432;2023-07-16T15:41:17;98322.50;;;27.92;38.62
78717;BME280;68045;50.042;14.432;2023-07-16T15:45:20;98318.28;;;27.95;38.75
78717;BME280;68045;50.042;14.432;2023-07-16T15:49:21;98318.72;;;27.97;37.93
78717;BME280;68045;50.042;14.432;2023-07-16T15:53:22;98307.25;;;27.63;38.68
78717;BME280;68045;50.042;14.432;2023-07-16T15:57:23;98311.75;;;27.83;38.58
78717;BME280;68045;50.042;14.432;2023-07-16T16:01:24;98297.16;;;28.00;38.99
78717;BME280;68045;50.042;14.432;2023-07-16T16:05:25;98305.25;;;28.12;38.95
78717;BME280;68045;50.042;14.432;2023-07-16T16:09:25;98307.34;;;28.31;38.14
78717;BME280;68045;50.042;14.432;2023-07-16T16:13:27;98313.41;;;28.12;37.62
78717;BME280;68045;50.042;14.432;2023-07-16T16:17:28;98306.03;;;27.73;38.76
78717;BME280;68045;50.042;14.432;2023-07-16T16:21:29;98298.75;;;27.89;39.84
78717;BME280;68045;50.042;14.432;2023-07-16T16:25:31;98301.53;;;28.05;38.62
78717;BME280;68045;50.042;14.432;2023-07-16T16:29:32;98286.28;;;28.28;38.04
78717;BME280;68045;50.042;14.432;2023-07-16T16:33:33;98291.16;;;28.35;37.97
78717;BME280;68045;50.042;14.432;2023-07-16T16:37:34;98297.13;;;28.40;37.25
78717;BME280;68045;50.042;14.432;2023-07-16T16:41:35;98288.78;;;27.93;38.28
78717;BME280;68045;50.042;14.432;2023-07-16T16:45:36;98293.59;;;27.72;38.33
78717;BME280;68045;50.042;14.432;2023-07-16T16:49:43;98284.56;;;27.68;38.67
78717;BME280;68045;50.042;14.432;2023-07-16T16:53:44;98299.78;;;27.60;38.92
78717;BME280;68045;50.042;14.432;2023-07-16T16:57:45;98292.69;;;27.43;39.29
78717;BME280;68045;50.042;14.432;2023-07-16T17:01:46;98297.34;;;27.43;40.19
78717;BME280;68045;50.042;14.432;2023-07-16T17:05:51;98301.06;;;27.50;39.40
78717;BME280;68045;50.042;14.432;2023-07-16T17:10:00;98298.22;;;27.47;39.30
78717;BME280;68045;50.042;14.432;2023-07-16T17:14:01;98300.03;;;27.43;39.45
78717;BME280;68045;50.042;14.432;2023-07-16T17:18:02;98296.88;;;27.41;39.49
78717;BME280;68045;50.042;14.432;2023-07-16T17:22:05;98295.75;;;27.29;39.84
78717;BME280;68045;50.042;14.432;2023-07-16T17:26:06;98299.13;;;27.26;40.09
78717;BME280;68045;50.042;14.432;2023-07-16T17:30:07;98295.66;;;27.14;40.20
78717;BME280;68045;50.042;14.432;2023-07-16T17:34:08;98301.03;;;27.01;40.53
78717;BME280;68045;50.042;14.432;2023-07-16T17:38:09;98301.56;;;26.95;41.15
78717;BME280;68045;50.042;14.432;2023-07-16T17:42:10;98291.19;;;26.97;40.75
78717;BME280;68045;50.042;14.432;2023-07-16T17:46:11;98300.22;;;26.89;41.24
78717;BME280;68045;50.042;14.432;2023-07-16T17:50:12;98308.53;;;26.83;41.79
78717;BME280;68045;50.042;14.432;2023-07-16T17:54:13;98313.16;;;26.83;41.79
78717;BME280;68045;50.042;14.432;2023-07-16T17:58:14;98313.63;;;26.85;41.67
78717;BME280;68045;50.042;14.432;2023-07-16T18:02:15;98319.63;;;26.78;42.43
78717;BME280;68045;50.042;14.432;2023-07-16T18:06:15;98298.00;;;26.70;42.20
78717;BME280;68045;50.042;14.432;2023-07-16T18:10:16;98302.44;;;26.74;42.83
78717;BME280;68045;50.042;14.432;2023-07-16T18:14:18;98313.91;;;26.59;42.56
78717;BME280;68045;50.042;14.432;2023-07-16T18:18:19;98308.94;;;26.61;43.10
78717;BME280;68045;50.042;14.432;2023-07-16T18:22:19;98316.47;;;26.43;43.10
78717;BME280;68045;50.042;14.432;2023-07-16T18:26:20;98320.59;;;26.41;43.02
78717;BME280;68045;50.042;14.432;2023-07-16T18:30:21;98314.91;;;26.34;43.56
78717;BME280;68045;50.042;14.432;2023-07-16T18:34:22;98315.44;;;26.27;44.12
78717;BME280;68045;50.042;14.432;2023-07-16T18:38:24;98309.44;;;26.21;44.29
78717;BME280;68045;50.042;14.432;2023-07-16T18:42:28;98312.69;;;26.15;44.33
78717;BME280;68045;50.042;14.432;2023-07-16T18:46:30;98314.31;;;26.07;44.79
78717;BME280;68045;50.042;14.432;2023-07-16T18:50:31;98313.63;;;25.98;44.71
78717;BME280;68045;50.042;14.432;2023-07-16T18:54:32;98319.34;;;25.96;45.30
78717;BME280;68045;50.042;14.432;2023-07-16T18:58:33;98334.00;;;25.95;44.51
78717;BME280;68045;50.042;14.432;2023-07-16T19:02:34;98348.06;;;25.89;44.96
78717;BME280;68045;50.042;14.432;2023-07-16T19:06:35;98355.38;;;25.88;44.77
78717;BME280;68045;50.042;14.432;2023-07-16T19:10:37;98352.53;;;25.85;44.89
78717;BME280;68045;50.042;14.432;2023-07-16T19:14:40;98349.09;;;25.76;45.44
78717;BME280;68045;50.042;14.432;2023-07-16T19:18:41;98353.53;;;25.71;45.45
78717;BME280;68045;50.042;14.432;2023-07-16T19:22:42;98366.44;;;25.74;45.66
78717;BME280;68045;50.042;14.432;2023-07-16T19:26:43;98348.00;;;25.68;45.67
78717;BME280;68045;50.042;14.432;2023-07-16T19:30:44;98345.13;;;25.64;45.47
78717;BME280;68045;50.042;14.432;2023-07-16T19:34:45;98350.78;;;25.51;45.64
78717;BME280;68045;50.042;14.432;2023-07-16T19:38:47;98376.22;;;25.50;45.92
78717;BME280;68045;50.042;14.432;2023-07-16T19:42:48;98332.84;;;25.46;46.18
78717;BME280;68045;50.042;14.432;2023-07-16T19:46:49;98350.69;;;25.38;46.57
78717;BME280;68045;50.042;14.432;2023-07-16T19:50:50;98354.81;;;25.36;46.80
78717;BME280;68045;50.042;14.432;2023-07-16T19:54:51;98351.63;;;25.42;47.89
78717;BME280;68045;50.042;14.432;2023-07-16T19:58:52;98351.25;;;25.53;47.78
78717;BME280;68045;50.042;14.432;2023-07-16T20:02:53;98377.69;;;25.47;48.18
78717;BME280;68045;50.042;14.432;2023-07-16T20:06:54;98376.22;;;25.50;48.58
78717;BME280;68045;50.042;14.432;2023-07-16T20:10:55;98375.81;;;25.39;47.30
78717;BME280;68045;50.042;14.432;2023-07-16T20:14:56;98363.41;;;25.38;48.67
78717;BME280;68045;50.042;14.432;2023-07-16T20:18:57;98347.72;;;25.31;49.09
78717;BME280;68045;50.042;14.432;2023-07-16T20:22:58;98349.00;;;25.25;48.05
78717;BME280;68045;50.042;14.432;2023-07-16T20:26:59;98349.81;;;25.17;49.02
78717;BME280;68045;50.042;14.432;2023-07-16T20:31:00;98352.88;;;25.07;48.87
78717;BME280;68045;50.042;14.432;2023-07-16T20:35:01;98354.44;;;24.99;49.52
78717;BME280;68045;50.042;14.432;2023-07-16T20:39:01;98357.19;;;24.90;50.03
78717;BME280;68045;50.042;14.432;2023-07-16T20:43:02;98361.94;;;24.93;51.64
78717;BME280;68045;50.042;14.432;2023-07-16T20:47:04;98358.47;;;24.84;50.88
78717;BME280;68045;50.042;14.432;2023-07-16T20:51:05;98360.56;;;24.70;51.64
78717;BME280;68045;50.042;14.432;2023-07-16T20:55:08;98371.19;;;24.58;51.78
78717;BME280;68045;50.042;14.432;2023-07-16T20:59:12;98371.22;;;24.49;52.01
78717;BME280;68045;50.042;14.432;2023-07-16T21:03:13;98384.06;;;24.35;53.11
78717;BME280;68045;50.042;14.432;2023-07-16T21:07:14;98388.94;;;24.24;53.43